sensor_id;sensor_type;location;lat;lon;timestamp;P1;durP1;ratioP1;P2;durP2;ratioP2
51475;SDS011;37554;50.362;7.568;2023-07-16T00:00:08;3.03;;;0.70;;
51475;SDS011;37554;50.362;7.568;2023-07-16T00:02:35;1.20;;;0.55;;
51475;SDS011;37554;50.362;7.568;2023-07-16T00:05:01;1.52;;;0.60;;
51475;SDS011;37554;50.362;7.568;2023-07-16T00:07:26;1.30;;;0.65;;
51475;SDS011;37554;50.362;7.568;2023-07-16T00:09:52;1.98;;;0.68;;
51475;SDS011;37554;50.362;7.568;2023-07-16T00:12:17;0.82;;;0.63;;
51475;SDS011;37554;50.362;7.568;2023-07-16T00:14:43;1.52;;;0.70;;
51475;SDS011;37554;50.362;7.568;2023-07-16T00:17:08;2.53;;;0.88;;
51475;SDS011;37554;50.362;7.568;2023-07-16T00:19:34;1.77;;;0.70;;
51475;SDS011;37554;50.362;7.568;2023-07-16T00:22:00;1.10;;;0.77;;
51475;SDS011;37554;50.362;7.568;2023-07-16T00:24:26;1.10;;;0.70;;
51475;SDS011;37554;50.362;7.568;2023-07-16T00:26:52;1.75;;;0.73;;
51475;SDS011;37554;50.362;7.568;2023-07-16T00:29:17;1.15;;;0.80;;
51475;SDS011;37554;50.362;7.568;2023-07-16T00:31:43;2.35;;;0.80;;
51475;SDS011;37554;50.362;7.568;2023-07-16T00:34:09;1.15;;;0.57;;
51475;SDS011;37554;50.362;7.568;2023-07-16T00:36:35;1.13;;;0.70;;
51475;SDS011;37554;50.362;7.568;2023-07-16T00:39:01;1.38;;;0.80;;
51475;SDS011;37554;50.362;7.568;2023-07-16T00:41:26;2.00;;;0.70;;
51475;SDS011;37554;50.362;7.568;2023-07-16T00:43:52;1.05;;;0.68;;
51475;SDS011;37554;50.362;7.568;2023-07-16T00:46:19;1.40;;;0.73;;
51475;SDS011;37554;50.362;7.568;2023-07-16T00:48:44;1.00;;;0.75;;
51475;SDS011;37554;50.362;7.568;2023-07-16T00:51:10;1.80;;;0.70;;
51475;SDS011;37554;50.362;7.568;2023-07-16T00:53:36;1.50;;;0.60;;
51475;SDS011;37554;50.362;7.568;2023-07-16T00:56:03;1.67;;;0.70;;
51475;SDS011;37554;50.362;7.568;2023-07-16T00:58:28;1.80;;;0.70;;
51475;SDS011;37554;50.362;7.568;2023-07-16T01:00:54;2.28;;;0.55;;
51475;SDS011;37554;50.362;7.568;2023-07-16T01:03:20;2.75;;;1.00;;
51475;SDS011;37554;50.362;7.568;2023-07-16T01:11:14;1.77;;;0.73;;
51475;SDS011;37554;50.362;7.568;2023-07-16T01:13:40;2.03;;;0.80;;
51475;SDS011;37554;50.362;7.568;2023-07-16T01:16:17;2.55;;;0.90;;
51475;SDS011;37554;50.362;7.568;2023-07-16T01:18:44;2.00;;;0.93;;
51475;SDS011;37554;50.362;7.568;2023-07-16T01:21:10;2.15;;;0.82;;
51475;SDS011;37554;50.362;7.568;2023-07-16T01:23:39;2.33;;;0.77;;
51475;SDS011;37554;50.362;7.568;2023-07-16T01:28:53;1.37;;;0.90;;
51475;SDS011;37554;50.362;7.568;2023-07-16T01:31:41;1.95;;;0.80;;
51475;SDS011;37554;50.362;7.568;2023-07-16T01:34:08;2.88;;;0.98;;
51475;SDS011;37554;50.362;7.568;2023-07-16T01:36:35;1.13;;;0.73;;
51475;SDS011;37554;50.362;7.568;2023-07-16T01:39:02;1.95;;;0.70;;
51475;SDS011;37554;50.362;7.568;2023-07-16T01:41:28;1.45;;;0.82;;
51475;SDS011;37554;50.362;7.568;2023-07-16T01:43:53;1.45;;;0.70;;
51475;SDS011;37554;50.362;7.568;2023-07-16T01:46:19;1.40;;;0.80;;
51475;SDS011;37554;50.362;7.568;2023-07-16T01:48:44;1.10;;;0.65;;
51475;SDS011;37554;50.362;7.568;2023-07-16T01:51:10;1.90;;;1.00;;
51475;SDS011;37554;50.362;7.568;2023-07-16T01:53:39;1.67;;;0.90;;
51475;SDS011;37554;50.362;7.568;2023-07-16T01:56:05;2.15;;;0.90;;
51475;SDS011;37554;50.362;7.568;2023-07-16T01:58:30;3.53;;;0.80;;
51475;SDS011;37554;50.362;7.568;2023-07-16T02:00:56;3.00;;;1.10;;
51475;SDS011;37554;50.362;7.568;2023-07-16T02:03:22;2.35;;;1.20;;
51475;SDS011;37554;50.362;7.568;2023-07-16T02:05:48;2.63;;;0.88;;
51475;SDS011;37554;50.362;7.568;2023-07-16T02:08:13;1.75;;;1.10;;
51475;SDS011;37554;50.362;7.568;2023-07-16T02:10:39;2.20;;;0.90;;
51475;SDS011;37554;50.362;7.568;2023-07-16T02:13:05;1.20;;;0.80;;
51475;SDS011;37554;50.362;7.568;2023-07-16T02:15:30;2.13;;;0.90;;
51475;SDS011;37554;50.362;7.568;2023-07-16T02:17:56;3.17;;;1.02;;
51475;SDS011;37554;50.362;7.568;2023-07-16T02:20:22;1.75;;;0.90;;
51475;SDS011;37554;50.362;7.568;2023-07-16T02:22:47;2.15;;;0.85;;
51475;SDS011;37554;50.362;7.568;2023-07-16T02:25:13;2.08;;;0.93;;
51475;SDS011;37554;50.362;7.568;2023-07-16T02:27:38;1.67;;;0.77;;
51475;SDS011;37554;50.362;7.568;2023-07-16T02:30:04;1.95;;;1.05;;
51475;SDS011;37554;50.362;7.568;2023-07-16T02:32:31;2.03;;;0.80;;
51475;SDS011;37554;50.362;7.568;2023-07-16T02:34:57;2.72;;;0.88;;
51475;SDS011;37554;50.362;7.568;2023-07-16T02:37:23;1.77;;;0.70;;
51475;SDS011;37554;50.362;7.568;2023-07-16T02:39:49;1.20;;;0.65;;
51475;SDS011;37554;50.362;7.568;2023-07-16T02:42:14;1.73;;;1.00;;
51475;SDS011;37554;50.362;7.568;2023-07-16T02:44:40;3.00;;;1.02;;
51475;SDS011;37554;50.362;7.568;2023-07-16T02:47:10;1.27;;;0.80;;
51475;SDS011;37554;50.362;7.568;2023-07-16T02:49:36;3.13;;;0.80;;
51475;SDS011;37554;50.362;7.568;2023-07-16T02:52:03;1.48;;;0.93;;
51475;SDS011;37554;50.362;7.568;2023-07-16T02:54:28;2.22;;;1.10;;
51475;SDS011;37554;50.362;7.568;2023-07-16T02:56:54;2.53;;;0.70;;
51475;SDS011;37554;50.362;7.568;2023-07-16T02:59:20;1.95;;;0.93;;
51475;SDS011;37554;50.362;7.568;2023-07-16T03:01:45;1.70;;;0.80;;
51475;SDS011;37554;50.362;7.568;2023-07-16T03:04:11;3.55;;;1.10;;
51475;SDS011;37554;50.362;7.568;2023-07-16T03:06:36;2.33;;;0.98;;
51475;SDS011;37554;50.362;7.568;2023-07-16T03:09:02;1.30;;;0.73;;
51475;SDS011;37554;50.362;7.568;2023-07-16T03:11:28;2.53;;;1.10;;
51475;SDS011;37554;50.362;7.568;2023-07-16T03:13:54;1.83;;;0.90;;
51475;SDS011;37554;50.362;7.568;2023-07-16T03:16:19;2.78;;;1.05;;
51475;SDS011;37554;50.362;7.568;2023-07-16T03:18:45;3.08;;;0.85;;
51475;SDS011;37554;50.362;7.568;2023-07-16T03:21:11;2.88;;;1.15;;
51475;SDS011;37554;50.362;7.568;2023-07-16T03:23:37;2.25;;;1.00;;
51475;SDS011;37554;50.362;7.568;2023-07-16T03:26:02;1.60;;;0.77;;
51475;SDS011;37554;50.362;7.568;2023-07-16T03:28:28;3.72;;;0.82;;
51475;SDS011;37554;50.362;7.568;2023-07-16T03:30:54;2.75;;;0.73;;
51475;SDS011;37554;50.362;7.568;2023-07-16T03:33:19;2.97;;;1.02;;
51475;SDS011;37554;50.362;7.568;2023-07-16T03:35:46;1.70;;;1.00;;
51475;SDS011;37554;50.362;7.568;2023-07-16T03:38:12;1.27;;;0.82;;
51475;SDS011;37554;50.362;7.568;2023-07-16T03:40:38;2.15;;;1.02;;
51475;SDS011;37554;50.362;7.568;2023-07-16T03:43:05;1.55;;;1.10;;
51475;SDS011;37554;50.362;7.568;2023-07-16T03:45:30;2.05;;;1.00;;
51475;SDS011;37554;50.362;7.568;2023-07-16T03:47:56;1.55;;;0.80;;
51475;SDS011;37554;50.362;7.568;2023-07-16T03:50:21;1.85;;;0.90;;
51475;SDS011;37554;50.362;7.568;2023-07-16T03:52:47;1.88;;;1.00;;
51475;SDS011;37554;50.362;7.568;2023-07-16T03:55:13;3.08;;;1.10;;
51475;SDS011;37554;50.362;7.568;2023-07-16T03:57:38;3.08;;;1.33;;
51475;SDS011;37554;50.362;7.568;2023-07-16T04:00:05;1.80;;;1.10;;
51475;SDS011;37554;50.362;7.568;2023-07-16T04:02:33;3.45;;;1.33;;
51475;SDS011;37554;50.362;7.568;2023-07-16T04:04:58;2.90;;;1.25;;
51475;SDS011;37554;50.362;7.568;2023-07-16T04:07:24;2.47;;;1.05;;
51475;SDS011;37554;50.362;7.568;2023-07-16T04:09:50;2.25;;;1.00;;
51475;SDS011;37554;50.362;7.568;2023-07-16T04:12:16;2.33;;;1.02;;
51475;SDS011;37554;50.362;7.568;2023-07-16T04:14:42;1.77;;;0.90;;
51475;SDS011;37554;50.362;7.568;2023-07-16T04:17:07;1.73;;;0.90;;
51475;SDS011;37554;50.362;7.568;2023-07-16T04:19:33;1.98;;;1.02;;
51475;SDS011;37554;50.362;7.568;2023-07-16T04:21:59;2.05;;;1.10;;
51475;SDS011;37554;50.362;7.568;2023-07-16T04:24:24;3.00;;;1.00;;
51475;SDS011;37554;50.362;7.568;2023-07-16T04:26:51;3.15;;;1.30;;
51475;SDS011;37554;50.362;7.568;2023-07-16T04:29:18;2.42;;;0.80;;
51475;SDS011;37554;50.362;7.568;2023-07-16T04:31:43;2.63;;;1.05;;
51475;SDS011;37554;50.362;7.568;2023-07-16T04:34:09;3.28;;;1.15;;
51475;SDS011;37554;50.362;7.568;2023-07-16T04:36:34;2.92;;;1.23;;
51475;SDS011;37554;50.362;7.568;2023-07-16T04:39:00;3.30;;;1.00;;
51475;SDS011;37554;50.362;7.568;2023-07-16T04:41:26;1.58;;;0.90;;
51475;SDS011;37554;50.362;7.568;2023-07-16T04:43:52;3.03;;;1.05;;
51475;SDS011;37554;50.362;7.568;2023-07-16T04:46:17;1.90;;;0.85;;
51475;SDS011;37554;50.362;7.568;2023-07-16T04:48:43;2.22;;;0.95;;
51475;SDS011;37554;50.362;7.568;2023-07-16T04:51:09;2.00;;;1.15;;
51475;SDS011;37554;50.362;7.568;2023-07-16T04:53:34;2.40;;;1.25;;
51475;SDS011;37554;50.362;7.568;2023-07-16T04:56:00;2.20;;;0.98;;
51475;SDS011;37554;50.362;7.568;2023-07-16T04:58:25;2.50;;;1.10;;
51475;SDS011;37554;50.362;7.568;2023-07-16T05:00:51;2.75;;;1.17;;
51475;SDS011;37554;50.362;7.568;2023-07-16T05:03:17;2.75;;;0.98;;
51475;SDS011;37554;50.362;7.568;2023-07-16T05:05:42;1.73;;;1.08;;
51475;SDS011;37554;50.362;7.568;2023-07-16T05:08:08;3.30;;;1.30;;
51475;SDS011;37554;50.362;7.568;2023-07-16T05:10:33;3.83;;;1.40;;
51475;SDS011;37554;50.362;7.568;2023-07-16T05:12:59;2.92;;;1.35;;
51475;SDS011;37554;50.362;7.568;2023-07-16T05:15:25;5.50;;;1.60;;
51475;SDS011;37554;50.362;7.568;2023-07-16T05:17:50;2.63;;;1.17;;
51475;SDS011;37554;50.362;7.568;2023-07-16T05:20:16;2.35;;;1.15;;
51475;SDS011;37554;50.362;7.568;2023-07-16T05:22:41;2.63;;;1.30;;
51475;SDS011;37554;50.362;7.568;2023-07-16T05:25:07;3.05;;;1.10;;
51475;SDS011;37554;50.362;7.568;2023-07-16T05:27:33;3.72;;;1.23;;
51475;SDS011;37554;50.362;7.568;2023-07-16T05:29:59;2.53;;;1.40;;
51475;SDS011;37554;50.362;7.568;2023-07-16T05:32:24;2.10;;;1.30;;
51475;SDS011;37554;50.362;7.568;2023-07-16T05:34:50;2.83;;;1.30;;
51475;SDS011;37554;50.362;7.568;2023-07-16T05:37:15;3.67;;;1.40;;
51475;SDS011;37554;50.362;7.568;2023-07-16T05:39:41;3.78;;;1.40;;
51475;SDS011;37554;50.362;7.568;2023-07-16T05:42:07;2.25;;;1.25;;
51475;SDS011;37554;50.362;7.568;2023-07-16T05:44:32;3.45;;;1.83;;
51475;SDS011;37554;50.362;7.568;2023-07-16T05:46:58;5.13;;;1.70;;
51475;SDS011;37554;50.362;7.568;2023-07-16T05:49:24;2.97;;;1.60;;
51475;SDS011;37554;50.362;7.568;2023-07-16T05:51:51;2.65;;;1.42;;
51475;SDS011;37554;50.362;7.568;2023-07-16T05:54:17;2.72;;;1.30;;
51475;SDS011;37554;50.362;7.568;2023-07-16T05:56:42;2.72;;;1.50;;
51475;SDS011;37554;50.362;7.568;2023-07-16T05:59:08;4.13;;;1.45;;
51475;SDS011;37554;50.362;7.568;2023-07-16T06:01:34;3.13;;;1.67;;
51475;SDS011;37554;50.362;7.568;2023-07-16T06:04:00;2.50;;;1.40;;
51475;SDS011;37554;50.362;7.568;2023-07-16T06:06:27;2.53;;;1.40;;
51475;SDS011;37554;50.362;7.568;2023-07-16T06:08:53;3.33;;;1.60;;
51475;SDS011;37554;50.362;7.568;2023-07-16T06:11:18;5.65;;;1.65;;
51475;SDS011;37554;50.362;7.568;2023-07-16T06:13:44;3.72;;;1.55;;
51475;SDS011;37554;50.362;7.568;2023-07-16T06:16:10;4.40;;;1.40;;
51475;SDS011;37554;50.362;7.568;2023-07-16T06:18:35;5.25;;;1.50;;
51475;SDS011;37554;50.362;7.568;2023-07-16T06:21:01;6.13;;;1.80;;
51475;SDS011;37554;50.362;7.568;2023-07-16T06:23:26;4.03;;;1.77;;
51475;SDS011;37554;50.362;7.568;2023-07-16T06:25:55;4.45;;;1.77;;
51475;SDS011;37554;50.362;7.568;2023-07-16T06:28:21;3.03;;;1.65;;
51475;SDS011;37554;50.362;7.568;2023-07-16T06:30:48;3.58;;;1.75;;
51475;SDS011;37554;50.362;7.568;2023-07-16T06:33:14;3.67;;;1.48;;
51475;SDS011;37554;50.362;7.568;2023-07-16T06:35:39;5.32;;;1.67;;
51475;SDS011;37554;50.362;7.568;2023-07-16T06:38:08;2.90;;;1.58;;
51475;SDS011;37554;50.362;7.568;2023-07-16T06:40:34;5.00;;;1.50;;
51475;SDS011;37554;50.362;7.568;2023-07-16T06:42:59;4.03;;;1.80;;
51475;SDS011;37554;50.362;7.568;2023-07-16T06:45:25;3.08;;;1.67;;
51475;SDS011;37554;50.362;7.568;2023-07-16T06:47:50;4.10;;;1.52;;
51475;SDS011;37554;50.362;7.568;2023-07-16T06:50:16;2.70;;;1.42;;
51475;SDS011;37554;50.362;7.568;2023-07-16T06:52:42;2.90;;;1.42;;
51475;SDS011;37554;50.362;7.568;2023-07-16T06:55:08;3.13;;;1.65;;
51475;SDS011;37554;50.362;7.568;2023-07-16T06:57:33;2.85;;;1.75;;
51475;SDS011;37554;50.362;7.568;2023-07-16T06:59:59;3.97;;;1.80;;
51475;SDS011;37554;50.362;7.568;2023-07-16T07:02:24;3.70;;;2.25;;
51475;SDS011;37554;50.362;7.568;2023-07-16T07:04:50;3.47;;;1.80;;
51475;SDS011;37554;50.362;7.568;2023-07-16T07:07:16;3.20;;;1.88;;
51475;SDS011;37554;50.362;7.568;2023-07-16T07:09:42;3.35;;;2.08;;
51475;SDS011;37554;50.362;7.568;2023-07-16T07:12:08;2.45;;;1.77;;
51475;SDS011;37554;50.362;7.568;2023-07-16T07:14:33;3.83;;;1.83;;
51475;SDS011;37554;50.362;7.568;2023-07-16T07:16:59;3.80;;;1.58;;
51475;SDS011;37554;50.362;7.568;2023-07-16T07:19:25;4.82;;;1.50;;
51475;SDS011;37554;50.362;7.568;2023-07-16T07:21:50;2.22;;;1.48;;
51475;SDS011;37554;50.362;7.568;2023-07-16T07:24:16;2.75;;;1.63;;
51475;SDS011;37554;50.362;7.568;2023-07-16T07:26:42;3.10;;;1.70;;
51475;SDS011;37554;50.362;7.568;2023-07-16T07:29:07;3.33;;;1.45;;
51475;SDS011;37554;50.362;7.568;2023-07-16T07:31:33;2.72;;;1.60;;
51475;SDS011;37554;50.362;7.568;2023-07-16T07:33:59;2.47;;;1.73;;
51475;SDS011;37554;50.362;7.568;2023-07-16T07:36:24;2.88;;;1.70;;
51475;SDS011;37554;50.362;7.568;2023-07-16T07:38:50;2.88;;;1.63;;
51475;SDS011;37554;50.362;7.568;2023-07-16T07:41:15;3.38;;;1.60;;
51475;SDS011;37554;50.362;7.568;2023-07-16T07:43:41;5.28;;;1.95;;
51475;SDS011;37554;50.362;7.568;2023-07-16T07:46:08;2.80;;;1.70;;
51475;SDS011;37554;50.362;7.568;2023-07-16T07:48:33;2.72;;;1.65;;
51475;SDS011;37554;50.362;7.568;2023-07-16T07:50:59;2.83;;;1.42;;
51475;SDS011;37554;50.362;7.568;2023-07-16T07:53:24;1.92;;;1.30;;
51475;SDS011;37554;50.362;7.568;2023-07-16T07:55:50;2.85;;;1.65;;
51475;SDS011;37554;50.362;7.568;2023-07-16T07:58:16;4.00;;;1.95;;
51475;SDS011;37554;50.362;7.568;2023-07-16T08:00:41;4.32;;;2.00;;
51475;SDS011;37554;50.362;7.568;2023-07-16T08:03:07;3.63;;;1.73;;
51475;SDS011;37554;50.362;7.568;2023-07-16T08:05:32;2.70;;;1.80;;
51475;SDS011;37554;50.362;7.568;2023-07-16T08:07:59;4.15;;;1.90;;
51475;SDS011;37554;50.362;7.568;2023-07-16T08:10:24;2.10;;;1.90;;
51475;SDS011;37554;50.362;7.568;2023-07-16T08:12:50;2.63;;;1.77;;
51475;SDS011;37554;50.362;7.568;2023-07-16T08:15:17;2.60;;;2.03;;
51475;SDS011;37554;50.362;7.568;2023-07-16T08:17:43;2.25;;;1.65;;
51475;SDS011;37554;50.362;7.568;2023-07-16T08:20:10;2.85;;;1.73;;
51475;SDS011;37554;50.362;7.568;2023-07-16T08:22:37;1.83;;;1.48;;
51475;SDS011;37554;50.362;7.568;2023-07-16T08:25:03;3.13;;;1.83;;
51475;SDS011;37554;50.362;7.568;2023-07-16T08:27:29;3.25;;;2.00;;
51475;SDS011;37554;50.362;7.568;2023-07-16T08:29:55;4.35;;;2.08;;
51475;SDS011;37554;50.362;7.568;2023-07-16T08:32:21;4.47;;;1.88;;
51475;SDS011;37554;50.362;7.568;2023-07-16T08:34:47;2.63;;;1.75;;
51475;SDS011;37554;50.362;7.568;2023-07-16T08:37:13;3.58;;;1.67;;
51475;SDS011;37554;50.362;7.568;2023-07-16T08:39:39;2.35;;;1.83;;
51475;SDS011;37554;50.362;7.568;2023-07-16T08:42:04;2.83;;;1.77;;
51475;SDS011;37554;50.362;7.568;2023-07-16T08:44:31;3.85;;;1.83;;
51475;SDS011;37554;50.362;7.568;2023-07-16T08:46:57;2.75;;;1.80;;
51475;SDS011;37554;50.362;7.568;2023-07-16T08:49:23;3.90;;;2.00;;
51475;SDS011;37554;50.362;7.568;2023-07-16T08:51:50;3.30;;;2.00;;
51475;SDS011;37554;50.362;7.568;2023-07-16T08:54:18;3.03;;;2.00;;
51475;SDS011;37554;50.362;7.568;2023-07-16T08:56:44;3.25;;;1.90;;
51475;SDS011;37554;50.362;7.568;2023-07-16T08:59:12;3.28;;;2.10;;
51475;SDS011;37554;50.362;7.568;2023-07-16T09:01:39;3.75;;;2.08;;
51475;SDS011;37554;50.362;7.568;2023-07-16T09:04:05;2.67;;;2.20;;
51475;SDS011;37554;50.362;7.568;2023-07-16T09:06:30;3.10;;;2.15;;
51475;SDS011;37554;50.362;7.568;2023-07-16T09:08:56;2.63;;;2.25;;
51475;SDS011;37554;50.362;7.568;2023-07-16T09:11:22;2.85;;;2.22;;
51475;SDS011;37554;50.362;7.568;2023-07-16T09:13:48;3.80;;;2.28;;
51475;SDS011;37554;50.362;7.568;2023-07-16T09:16:14;2.72;;;2.20;;
51475;SDS011;37554;50.362;7.568;2023-07-16T09:18:42;5.18;;;2.28;;
51475;SDS011;37554;50.362;7.568;2023-07-16T09:21:08;2.92;;;2.10;;
51475;SDS011;37554;50.362;7.568;2023-07-16T09:23:34;2.05;;;1.70;;
51475;SDS011;37554;50.362;7.568;2023-07-16T09:26:00;3.53;;;2.08;;
51475;SDS011;37554;50.362;7.568;2023-07-16T09:28:28;2.70;;;2.13;;
51475;SDS011;37554;50.362;7.568;2023-07-16T09:31:02;3.70;;;2.17;;
51475;SDS011;37554;50.362;7.568;2023-07-16T09:33:30;2.35;;;2.15;;
51475;SDS011;37554;50.362;7.568;2023-07-16T09:35:56;2.30;;;2.10;;
51475;SDS011;37554;50.362;7.568;2023-07-16T09:38:22;3.10;;;2.17;;
51475;SDS011;37554;50.362;7.568;2023-07-16T09:40:49;3.45;;;2.22;;
51475;SDS011;37554;50.362;7.568;2023-07-16T09:43:17;4.18;;;2.20;;
51475;SDS011;37554;50.362;7.568;2023-07-16T09:45:43;3.10;;;2.38;;
51475;SDS011;37554;50.362;7.568;2023-07-16T09:48:09;3.70;;;2.33;;
51475;SDS011;37554;50.362;7.568;2023-07-16T09:50:35;2.75;;;2.33;;
51475;SDS011;37554;50.362;7.568;2023-07-16T09:53:01;3.83;;;2.38;;
51475;SDS011;37554;50.362;7.568;2023-07-16T09:55:32;5.15;;;2.47;;
51475;SDS011;37554;50.362;7.568;2023-07-16T09:58:00;3.22;;;2.55;;
51475;SDS011;37554;50.362;7.568;2023-07-16T10:00:28;2.85;;;2.30;;
51475;SDS011;37554;50.362;7.568;2023-07-16T10:02:55;3.42;;;2.45;;
51475;SDS011;37554;50.362;7.568;2023-07-16T10:05:24;4.00;;;2.58;;
51475;SDS011;37554;50.362;7.568;2023-07-16T10:07:52;3.25;;;2.10;;
51475;SDS011;37554;50.362;7.568;2023-07-16T10:10:43;3.47;;;2.10;;
51475;SDS011;37554;50.362;7.568;2023-07-16T10:13:13;2.22;;;1.80;;
51475;SDS011;37554;50.362;7.568;2023-07-16T10:15:50;7.07;;;2.38;;
51475;SDS011;37554;50.362;7.568;2023-07-16T10:18:24;4.10;;;2.30;;
51475;SDS011;37554;50.362;7.568;2023-07-16T10:20:50;3.42;;;1.88;;
51475;SDS011;37554;50.362;7.568;2023-07-16T10:23:18;5.40;;;2.28;;
51475;SDS011;37554;50.362;7.568;2023-07-16T10:25:59;2.67;;;2.40;;
51475;SDS011;37554;50.362;7.568;2023-07-16T10:28:30;3.38;;;2.17;;
51475;SDS011;37554;50.362;7.568;2023-07-16T10:30:56;3.03;;;2.10;;
51475;SDS011;37554;50.362;7.568;2023-07-16T10:33:22;5.10;;;2.47;;
51475;SDS011;37554;50.362;7.568;2023-07-16T10:35:48;3.13;;;1.90;;
51475;SDS011;37554;50.362;7.568;2023-07-16T10:38:13;3.83;;;2.40;;
51475;SDS011;37554;50.362;7.568;2023-07-16T10:40:40;4.13;;;2.30;;
51475;SDS011;37554;50.362;7.568;2023-07-16T10:43:06;3.28;;;2.28;;
51475;SDS011;37554;50.362;7.568;2023-07-16T10:45:32;2.70;;;2.10;;
51475;SDS011;37554;50.362;7.568;2023-07-16T10:47:58;3.42;;;2.25;;
51475;SDS011;37554;50.362;7.568;2023-07-16T10:50:24;3.17;;;2.30;;
51475;SDS011;37554;50.362;7.568;2023-07-16T10:52:50;2.65;;;2.08;;
51475;SDS011;37554;50.362;7.568;2023-07-16T10:55:20;3.03;;;2.35;;
51475;SDS011;37554;50.362;7.568;2023-07-16T10:57:49;3.88;;;2.30;;
51475;SDS011;37554;50.362;7.568;2023-07-16T11:00:16;2.47;;;2.17;;
51475;SDS011;37554;50.362;7.568;2023-07-16T11:02:42;5.38;;;2.47;;
51475;SDS011;37554;50.362;7.568;2023-07-16T11:05:12;2.70;;;2.20;;
51475;SDS011;37554;50.362;7.568;2023-07-16T11:07:42;2.80;;;2.05;;
51475;SDS011;37554;50.362;7.568;2023-07-16T11:10:09;3.55;;;2.10;;
51475;SDS011;37554;50.362;7.568;2023-07-16T11:12:35;4.63;;;2.40;;
51475;SDS011;37554;50.362;7.568;2023-07-16T11:15:00;3.45;;;2.17;;
51475;SDS011;37554;50.362;7.568;2023-07-16T11:17:26;3.75;;;2.72;;
51475;SDS011;37554;50.362;7.568;2023-07-16T11:19:52;6.53;;;2.42;;
51475;SDS011;37554;50.362;7.568;2023-07-16T11:22:26;4.10;;;2.50;;
51475;SDS011;37554;50.362;7.568;2023-07-16T11:24:52;6.45;;;2.50;;
51475;SDS011;37554;50.362;7.568;2023-07-16T11:27:22;3.20;;;2.53;;
51475;SDS011;37554;50.362;7.568;2023-07-16T11:29:50;3.83;;;2.77;;
51475;SDS011;37554;50.362;7.568;2023-07-16T11:32:33;5.90;;;3.00;;
51475;SDS011;37554;50.362;7.568;2023-07-16T11:35:01;2.92;;;2.53;;
51475;SDS011;37554;50.362;7.568;2023-07-16T11:37:31;3.67;;;2.80;;
51475;SDS011;37554;50.362;7.568;2023-07-16T11:39:58;3.13;;;2.67;;
51475;SDS011;37554;50.362;7.568;2023-07-16T11:42:32;3.53;;;2.80;;
51475;SDS011;37554;50.362;7.568;2023-07-16T11:45:02;3.38;;;2.25;;
51475;SDS011;37554;50.362;7.568;2023-07-16T11:47:28;2.88;;;2.58;;
51475;SDS011;37554;50.362;7.568;2023-07-16T11:49:55;4.18;;;2.50;;
51475;SDS011;37554;50.362;7.568;2023-07-16T11:52:22;3.25;;;2.63;;
51475;SDS011;37554;50.362;7.568;2023-07-16T11:54:52;3.55;;;2.47;;
51475;SDS011;37554;50.362;7.568;2023-07-16T11:57:18;3.88;;;2.53;;
51475;SDS011;37554;50.362;7.568;2023-07-16T11:59:43;3.45;;;2.50;;
51475;SDS011;37554;50.362;7.568;2023-07-16T12:02:09;2.72;;;2.35;;
51475;SDS011;37554;50.362;7.568;2023-07-16T12:04:35;2.72;;;2.00;;
51475;SDS011;37554;50.362;7.568;2023-07-16T12:07:00;4.18;;;2.40;;
51475;SDS011;37554;50.362;7.568;2023-07-16T12:09:26;2.70;;;2.20;;
51475;SDS011;37554;50.362;7.568;2023-07-16T12:11:52;3.72;;;2.28;;
51475;SDS011;37554;50.362;7.568;2023-07-16T12:14:18;3.40;;;2.30;;
51475;SDS011;37554;50.362;7.568;2023-07-16T12:16:43;2.22;;;2.00;;
51475;SDS011;37554;50.362;7.568;2023-07-16T12:19:09;3.03;;;2.10;;
51475;SDS011;37554;50.362;7.568;2023-07-16T12:21:35;2.92;;;2.35;;
51475;SDS011;37554;50.362;7.568;2023-07-16T12:24:01;2.88;;;2.33;;
51475;SDS011;37554;50.362;7.568;2023-07-16T12:26:27;2.78;;;2.35;;
51475;SDS011;37554;50.362;7.568;2023-07-16T12:28:53;5.07;;;2.15;;
51475;SDS011;37554;50.362;7.568;2023-07-16T12:31:19;3.72;;;2.42;;
51475;SDS011;37554;50.362;7.568;2023-07-16T12:33:45;3.67;;;2.28;;
51475;SDS011;37554;50.362;7.568;2023-07-16T12:36:12;5.28;;;2.85;;
51475;SDS011;37554;50.362;7.568;2023-07-16T12:38:38;2.40;;;2.20;;
51475;SDS011;37554;50.362;7.568;2023-07-16T12:41:03;2.53;;;2.22;;
51475;SDS011;37554;50.362;7.568;2023-07-16T12:43:29;3.88;;;2.42;;
51475;SDS011;37554;50.362;7.568;2023-07-16T12:45:57;5.82;;;2.80;;
51475;SDS011;37554;50.362;7.568;2023-07-16T12:48:22;4.20;;;2.78;;
51475;SDS011;37554;50.362;7.568;2023-07-16T12:50:48;3.35;;;2.20;;
51475;SDS011;37554;50.362;7.568;2023-07-16T12:53:14;3.33;;;2.40;;
51475;SDS011;37554;50.362;7.568;2023-07-16T12:55:40;2.38;;;2.15;;
51475;SDS011;37554;50.362;7.568;2023-07-16T12:58:05;4.05;;;2.40;;
51475;SDS011;37554;50.362;7.568;2023-07-16T13:00:31;4.47;;;2.25;;
51475;SDS011;37554;50.362;7.568;2023-07-16T13:02:57;3.70;;;2.10;;
51475;SDS011;37554;50.362;7.568;2023-07-16T13:05:22;2.83;;;2.13;;
51475;SDS011;37554;50.362;7.568;2023-07-16T13:07:48;4.30;;;2.60;;
51475;SDS011;37554;50.362;7.568;2023-07-16T13:10:13;3.03;;;2.70;;
51475;SDS011;37554;50.362;7.568;2023-07-16T13:12:39;3.42;;;2.60;;
51475;SDS011;37554;50.362;7.568;2023-07-16T13:15:05;3.22;;;2.72;;
51475;SDS011;37554;50.362;7.568;2023-07-16T13:17:31;4.60;;;3.03;;
51475;SDS011;37554;50.362;7.568;2023-07-16T13:19:56;3.42;;;3.13;;
51475;SDS011;37554;50.362;7.568;2023-07-16T13:22:22;5.28;;;4.57;;
51475;SDS011;37554;50.362;7.568;2023-07-16T13:24:48;10.43;;;8.10;;
51475;SDS011;37554;50.362;7.568;2023-07-16T13:27:20;11.00;;;9.90;;
51475;SDS011;37554;50.362;7.568;2023-07-16T13:29:46;9.45;;;8.55;;
51475;SDS011;37554;50.362;7.568;2023-07-16T13:32:12;9.85;;;8.88;;
51475;SDS011;37554;50.362;7.568;2023-07-16T13:34:37;9.73;;;8.73;;
51475;SDS011;37554;50.362;7.568;2023-07-16T13:37:03;8.70;;;7.80;;
51475;SDS011;37554;50.362;7.568;2023-07-16T13:39:29;7.97;;;7.20;;
51475;SDS011;37554;50.362;7.568;2023-07-16T13:41:54;6.05;;;5.15;;
51475;SDS011;37554;50.362;7.568;2023-07-16T13:44:20;5.93;;;5.43;;
51475;SDS011;37554;50.362;7.568;2023-07-16T13:46:46;5.50;;;4.55;;
51475;SDS011;37554;50.362;7.568;2023-07-16T13:49:12;4.72;;;4.22;;
51475;SDS011;37554;50.362;7.568;2023-07-16T13:51:38;4.70;;;4.15;;
51475;SDS011;37554;50.362;7.568;2023-07-16T13:54:04;4.55;;;3.63;;
51475;SDS011;37554;50.362;7.568;2023-07-16T13:56:29;3.67;;;3.20;;
51475;SDS011;37554;50.362;7.568;2023-07-16T13:58:55;3.33;;;3.03;;
51475;SDS011;37554;50.362;7.568;2023-07-16T14:01:21;3.03;;;2.72;;
51475;SDS011;37554;50.362;7.568;2023-07-16T14:03:47;4.43;;;2.58;;
51475;SDS011;37554;50.362;7.568;2023-07-16T14:06:13;4.13;;;2.67;;
51475;SDS011;37554;50.362;7.568;2023-07-16T14:08:39;3.47;;;2.75;;
51475;SDS011;37554;50.362;7.568;2023-07-16T14:11:04;3.03;;;2.40;;
51475;SDS011;37554;50.362;7.568;2023-07-16T14:13:30;3.80;;;2.25;;
51475;SDS011;37554;50.362;7.568;2023-07-16T14:15:56;2.65;;;2.17;;
51475;SDS011;37554;50.362;7.568;2023-07-16T14:18:21;3.30;;;2.20;;
51475;SDS011;37554;50.362;7.568;2023-07-16T14:20:47;2.58;;;1.95;;
51475;SDS011;37554;50.362;7.568;2023-07-16T14:23:12;3.28;;;2.08;;
51475;SDS011;37554;50.362;7.568;2023-07-16T14:25:38;2.55;;;1.92;;
51475;SDS011;37554;50.362;7.568;2023-07-16T14:28:04;2.85;;;2.20;;
51475;SDS011;37554;50.362;7.568;2023-07-16T14:30:29;2.67;;;2.10;;
51475;SDS011;37554;50.362;7.568;2023-07-16T14:32:55;2.58;;;2.22;;
51475;SDS011;37554;50.362;7.568;2023-07-16T14:35:21;3.25;;;2.10;;
51475;SDS011;37554;50.362;7.568;2023-07-16T14:37:47;4.57;;;2.17;;
51475;SDS011;37554;50.362;7.568;2023-07-16T14:40:13;3.63;;;2.20;;
51475;SDS011;37554;50.362;7.568;2023-07-16T14:42:38;2.63;;;1.98;;
51475;SDS011;37554;50.362;7.568;2023-07-16T14:45:04;3.53;;;2.13;;
51475;SDS011;37554;50.362;7.568;2023-07-16T14:47:32;1.85;;;1.75;;
51475;SDS011;37554;50.362;7.568;2023-07-16T14:49:58;2.67;;;1.60;;